Language: 


Des rapports , des résumés tant et plus, au choix de chacun....


Données statistiques de la station
Quotidien Rapport Janvier 17, 2018 Unités:  les deux    Anglais   Métrique
« Précédent Jour
Suivant Jour »
Quotidien Hebdomadaire Mensuel Annuel Actuel
  Haut: Bas: Moyen:
Température: TemperatureC °F /  -17.8 °C 2.4 °F /  -16.4 °C 4.9 °F /  -15.1 °C
Pt de rosée: DewpointC °F /  -17.8 °C -1.0 °F /  -18.3 °C 1 °F /  -17.2 °C
Humidité: Humidity % 55 % 74 %
Vitesse du vent: WindSpeedKMH mph /  0 km/h - 14.8 mph /  23.8 km/h
Rafales: WindSpeedGustKMH mph /  0 km/h - -
Vent:- - West
Pression: PressurehPa in /  0 hPa 995.1 in /  33694.1 hPa -
Précipitation: 0.0 in /  0 mm    
Historical Graphs
 
 
Données statistiques pour Janvier 17, 2018
Heure Température Point de rosée Pression Vent Vitesse du vent Refales Humidité Pluie (taux horaire)
TemperatureC °F /  -17.8 °C DewpointC °F /  -17.8 °C PressurehPa in /  0 hPa Calm     Humidity % HourlyPrecipMM in /  0 mm
00:01 4.2 °F /  -15.4 °C 3.0 °F /  -16.1 °C 995.1 in /  33694.1 hPa West 22.7 mph /  36.5 km/h 24.8 mph /  39.9 km/h 94 % 0.0 in /  0 mm
00:12 4.2 °F /  -15.4 °C 3.0 °F /  -16.1 °C 995.1 in /  33694.1 hPa West 27.7 mph /  44.6 km/h 27.7 mph /  44.6 km/h 94 % 0.0 in /  0 mm
00:17 4.4 °F /  -15.3 °C 2.0 °F /  -16.7 °C 995.1 in /  33694.1 hPa WSW 19.5 mph /  31.4 km/h 27.7 mph /  44.6 km/h 85 % 0.0 in /  0 mm
00:31 4.4 °F /  -15.3 °C 2.0 °F /  -16.7 °C 995.1 in /  33694.1 hPa West 24.5 mph /  39.4 km/h 24.5 mph /  39.4 km/h 85 % 0.0 in /  0 mm
00:37 4.4 °F /  -15.3 °C 2.0 °F /  -16.7 °C 995.1 in /  33694.1 hPa WNW 20.6 mph /  33.2 km/h 30.2 mph /  48.6 km/h 85 % 0.0 in /  0 mm
00:59 4.4 °F /  -15.3 °C 2.0 °F /  -16.7 °C 995.1 in /  33694.1 hPa West 23.8 mph /  38.3 km/h 25.3 mph /  40.7 km/h 85 % 0.0 in /  0 mm
01:19 4.4 °F /  -15.3 °C 2.0 °F /  -16.7 °C 996.2 in /  33731.3 hPa West 10.1 mph /  16.3 km/h 25.6 mph /  41.2 km/h 85 % 0.0 in /  0 mm
01:28 4.4 °F /  -15.3 °C 2.0 °F /  -16.7 °C 996.2 in /  33731.3 hPa West 15.4 mph /  24.8 km/h 32.0 mph /  51.5 km/h 85 % 0.0 in /  0 mm
01:46 4.4 °F /  -15.3 °C 2.0 °F /  -16.7 °C 995.1 in /  33694.1 hPa West 13.0 mph /  20.9 km/h 24.5 mph /  39.4 km/h 85 % 0.0 in /  0 mm
01:52 4.4 °F /  -15.3 °C 2.0 °F /  -16.7 °C 995.1 in /  33694.1 hPa West 8.7 mph /  14 km/h 24.5 mph /  39.4 km/h 85 % 0.0 in /  0 mm
01:59 4.4 °F /  -15.3 °C 2.0 °F /  -16.7 °C 995.1 in /  33694.1 hPa WSW 12.6 mph /  20.3 km/h 22.4 mph /  36 km/h 85 % 0.0 in /  0 mm
02:04 4.4 °F /  -15.3 °C 2.0 °F /  -16.7 °C 995.1 in /  33694.1 hPa West 15.8 mph /  25.4 km/h 22.4 mph /  36 km/h 85 % 0.0 in /  0 mm
02:12 4.4 °F /  -15.3 °C 1.0 °F /  -17.2 °C 995.1 in /  33694.1 hPa WSW 10.5 mph /  16.9 km/h 23.0 mph /  37 km/h 75 % 0.0 in /  0 mm
02:25 4.4 °F /  -15.3 °C 1.0 °F /  -17.2 °C 995.1 in /  33694.1 hPa West 14.0 mph /  22.5 km/h 18.3 mph /  29.5 km/h 75 % 0.0 in /  0 mm
02:45 4.4 °F /  -15.3 °C 1.0 °F /  -17.2 °C 995.1 in /  33694.1 hPa West 17.7 mph /  28.5 km/h 27.7 mph /  44.6 km/h 75 % 0.0 in /  0 mm
02:53 4.4 °F /  -15.3 °C 1.0 °F /  -17.2 °C 995.1 in /  33694.1 hPa WSW 28.0 mph /  45.1 km/h 28.0 mph /  45.1 km/h 75 % 0.0 in /  0 mm
02:58 4.4 °F /  -15.3 °C 1.0 °F /  -17.2 °C 996.2 in /  33731.3 hPa WNW 23.0 mph /  37 km/h 28.0 mph /  45.1 km/h 75 % 0.0 in /  0 mm
03:28 4.5 °F /  -15.3 °C 0.0 °F /  -17.8 °C 996.2 in /  33731.3 hPa West 19.8 mph /  31.9 km/h 31.7 mph /  51 km/h 71 % 0.0 in /  0 mm
03:35 4.4 °F /  -15.3 °C 0.0 °F /  -17.8 °C 996.2 in /  33731.3 hPa WSW 16.6 mph /  26.7 km/h 31.7 mph /  51 km/h 71 % 0.0 in /  0 mm
03:42 4.3 °F /  -15.4 °C 0.0 °F /  -17.8 °C 996.8 in /  33751.6 hPa WNW 12.6 mph /  20.3 km/h 26.2 mph /  42.2 km/h 71 % 0.0 in /  0 mm
03:50 4.0 °F /  -15.6 °C -1.0 °F /  -18.3 °C 996.8 in /  33751.6 hPa West 26.2 mph /  42.2 km/h 26.2 mph /  42.2 km/h 71 % 0.0 in /  0 mm
03:55 3.9 °F /  -15.6 °C 0.0 °F /  -17.8 °C 996.8 in /  33751.6 hPa WSW 13.7 mph /  22 km/h 26.2 mph /  42.2 km/h 72 % 0.0 in /  0 mm
04:04 3.7 °F /  -15.7 °C -1.0 °F /  -18.3 °C 996.8 in /  33751.6 hPa SW 35.2 mph /  56.6 km/h 35.2 mph /  56.6 km/h 72 % 0.0 in /  0 mm
04:12 3.6 °F /  -15.8 °C -1.0 °F /  -18.3 °C 996.8 in /  33751.6 hPa NW 13.7 mph /  22 km/h 35.2 mph /  56.6 km/h 72 % 0.0 in /  0 mm
04:20 3.5 °F /  -15.8 °C -1.0 °F /  -18.3 °C 996.8 in /  33751.6 hPa West 24.8 mph /  39.9 km/h 27.0 mph /  43.5 km/h 73 % 0.0 in /  0 mm
04:27 3.4 °F /  -15.9 °C -1.0 °F /  -18.3 °C 996.8 in /  33751.6 hPa WSW 21.9 mph /  35.2 km/h 25.6 mph /  41.2 km/h 73 % 0.0 in /  0 mm
04:33 3.4 °F /  -15.9 °C -1.0 °F /  -18.3 °C 996.8 in /  33751.6 hPa WSW 16.9 mph /  27.2 km/h 24.8 mph /  39.9 km/h 73 % 0.0 in /  0 mm
04:45 3.4 °F /  -15.9 °C -1.0 °F /  -18.3 °C 996.8 in /  33751.6 hPa West 16.6 mph /  26.7 km/h 23.0 mph /  37 km/h 73 % 0.0 in /  0 mm
04:56 3.5 °F /  -15.8 °C -1.0 °F /  -18.3 °C 996.8 in /  33751.6 hPa WSW 19.1 mph /  30.7 km/h 26.7 mph /  43 km/h 73 % 0.0 in /  0 mm
05:14 3.6 °F /  -15.8 °C -1.0 °F /  -18.3 °C 996.8 in /  33751.6 hPa WNW 6.1 mph /  9.8 km/h 22.7 mph /  36.5 km/h 72 % 0.0 in /  0 mm
05:42 3.3 °F /  -15.9 °C -1.0 °F /  -18.3 °C 997.9 in /  33788.9 hPa WNW 10.1 mph /  16.3 km/h 27.7 mph /  44.6 km/h 71 % 0.0 in /  0 mm
05:48 3.3 °F /  -15.9 °C -1.0 °F /  -18.3 °C 997.9 in /  33788.9 hPa West 11.9 mph /  19.2 km/h 27.7 mph /  44.6 km/h 71 % 0.0 in /  0 mm
05:56 3.3 °F /  -15.9 °C -1.0 °F /  -18.3 °C 998.9 in /  33822.8 hPa West 15.8 mph /  25.4 km/h 24.8 mph /  39.9 km/h 71 % 0.0 in /  0 mm
06:12 3.3 °F /  -15.9 °C -1.0 °F /  -18.3 °C 998.9 in /  33822.8 hPa WNW 20.9 mph /  33.6 km/h 32.8 mph /  52.8 km/h 71 % 0.0 in /  0 mm
06:18 3.3 °F /  -15.9 °C -1.0 °F /  -18.3 °C 998.9 in /  33822.8 hPa SSW 28.0 mph /  45.1 km/h 28.0 mph /  45.1 km/h 72 % 0.0 in /  0 mm
06:36 3.3 °F /  -15.9 °C -1.0 °F /  -18.3 °C 998.9 in /  33822.8 hPa West 27.4 mph /  44.1 km/h 27.4 mph /  44.1 km/h 72 % 0.0 in /  0 mm
06:41 3.3 °F /  -15.9 °C -1.0 °F /  -18.3 °C 998.9 in /  33822.8 hPa WNW 4.7 mph /  7.6 km/h 27.4 mph /  44.1 km/h 72 % 0.0 in /  0 mm
06:47 3.3 °F /  -15.9 °C -1.0 °F /  -18.3 °C 998.9 in /  33822.8 hPa WNW 6.9 mph /  11.1 km/h 28.0 mph /  45.1 km/h 72 % 0.0 in /  0 mm
06:57 3.3 °F /  -15.9 °C -1.0 °F /  -18.3 °C 997.9 in /  33788.9 hPa WSW 9.7 mph /  15.6 km/h 23.0 mph /  37 km/h 72 % 0.0 in /  0 mm
07:04 3.3 °F /  -15.9 °C -1.0 °F /  -18.3 °C 997.9 in /  33788.9 hPa South 13.7 mph /  22 km/h 20.1 mph /  32.3 km/h 72 % 0.0 in /  0 mm
07:23 3.3 °F /  -15.9 °C -1.0 °F /  -18.3 °C 999.9 in /  33856.6 hPa SW 20.6 mph /  33.2 km/h 27.7 mph /  44.6 km/h 72 % 0.0 in /  0 mm
07:35 3.0 °F /  -16.1 °C -1.0 °F /  -18.3 °C 999.9 in /  33856.6 hPa WNW 14.0 mph /  22.5 km/h 31.4 mph /  50.5 km/h 74 % 0.0 in /  0 mm
07:44 3.2 °F /  -16 °C 0.0 °F /  -17.8 °C 1000.9 in /  33890.5 hPa West 21.2 mph /  34.1 km/h 24.5 mph /  39.4 km/h 75 % 0.0 in /  0 mm
07:51 3.3 °F /  -15.9 °C 0.0 °F /  -17.8 °C 1000.9 in /  33890.5 hPa West 26.2 mph /  42.2 km/h 26.2 mph /  42.2 km/h 75 % 0.0 in /  0 mm
08:12 3.3 °F /  -15.9 °C -1.0 °F /  -18.3 °C 1000.9 in /  33890.5 hPa West 13.0 mph /  20.9 km/h 27.4 mph /  44.1 km/h 73 % 0.0 in /  0 mm
08:30 3.2 °F /  -16 °C -1.0 °F /  -18.3 °C 1001.9 in /  33924.3 hPa West 20.9 mph /  33.6 km/h 20.9 mph /  33.6 km/h 73 % 0.0 in /  0 mm
08:35 3.1 °F /  -16.1 °C -1.0 °F /  -18.3 °C 1001.9 in /  33924.3 hPa West 18.0 mph /  29 km/h 22.4 mph /  36 km/h 73 % 0.0 in /  0 mm
08:47 3.0 °F /  -16.1 °C -1.0 °F /  -18.3 °C 1001.9 in /  33924.3 hPa West 16.9 mph /  27.2 km/h 24.5 mph /  39.4 km/h 73 % 0.0 in /  0 mm
08:56 3.1 °F /  -16.1 °C -1.0 °F /  -18.3 °C 1001.9 in /  33924.3 hPa West 8.7 mph /  14 km/h 27.7 mph /  44.6 km/h 73 % 0.0 in /  0 mm
09:09 3.3 °F /  -15.9 °C -1.0 °F /  -18.3 °C 1001.9 in /  33924.3 hPa WSW 13.7 mph /  22 km/h 31.7 mph /  51 km/h 74 % 0.0 in /  0 mm
09:17 3.3 °F /  -15.9 °C -1.0 °F /  -18.3 °C 1001.9 in /  33924.3 hPa West 17.2 mph /  27.7 km/h 25.3 mph /  40.7 km/h 74 % 0.0 in /  0 mm
09:23 3.3 °F /  -15.9 °C -1.0 °F /  -18.3 °C 1001.9 in /  33924.3 hPa West 16.6 mph /  26.7 km/h 25.6 mph /  41.2 km/h 74 % 0.0 in /  0 mm
09:43 3.6 °F /  -15.8 °C 0.0 °F /  -17.8 °C 1002.9 in /  33958.2 hPa WSW 21.2 mph /  34.1 km/h 27.0 mph /  43.5 km/h 75 % 0.0 in /  0 mm
09:50 3.6 °F /  -15.8 °C 0.0 °F /  -17.8 °C 1002.9 in /  33958.2 hPa SW 9.3 mph /  15 km/h 23.8 mph /  38.3 km/h 75 % 0.0 in /  0 mm
09:56 3.8 °F /  -15.7 °C 0.0 °F /  -17.8 °C 1002.9 in /  33958.2 hPa WSW 17.7 mph /  28.5 km/h 24.5 mph /  39.4 km/h 75 % 0.0 in /  0 mm
10:05 4.0 °F /  -15.6 °C 0.0 °F /  -17.8 °C 1002.9 in /  33958.2 hPa West 13.7 mph /  22 km/h 23.0 mph /  37 km/h 74 % 0.0 in /  0 mm
10:11 4.0 °F /  -15.6 °C 0.0 °F /  -17.8 °C 1003.9 in /  33992.1 hPa WSW 26.2 mph /  42.2 km/h 26.2 mph /  42.2 km/h 74 % 0.0 in /  0 mm
10:17 4.2 °F /  -15.4 °C 0.0 °F /  -17.8 °C 1003.9 in /  33992.1 hPa SW 14.8 mph /  23.8 km/h 26.2 mph /  42.2 km/h 73 % 0.0 in /  0 mm
10:32 4.6 °F /  -15.2 °C 0.0 °F /  -17.8 °C 1005.0 in /  34029.3 hPa WSW 19.1 mph /  30.7 km/h 33.5 mph /  53.9 km/h 71 % 0.0 in /  0 mm
10:48 5.2 °F /  -14.9 °C 0.0 °F /  -17.8 °C 1005.0 in /  34029.3 hPa WSW 12.2 mph /  19.6 km/h 23.3 mph /  37.5 km/h 70 % 0.0 in /  0 mm
10:56 5.5 °F /  -14.7 °C 1.0 °F /  -17.2 °C 1005.0 in /  34029.3 hPa WNW 20.9 mph /  33.6 km/h 25.9 mph /  41.7 km/h 70 % 0.0 in /  0 mm
11:02 5.7 °F /  -14.6 °C 1.0 °F /  -17.2 °C 1005.0 in /  34029.3 hPa West 24.5 mph /  39.4 km/h 24.8 mph /  39.9 km/h 69 % 0.0 in /  0 mm
11:17 6.2 °F /  -14.3 °C 1.0 °F /  -17.2 °C 1003.9 in /  33992.1 hPa West 12.6 mph /  20.3 km/h 24.8 mph /  39.9 km/h 67 % 0.0 in /  0 mm
11:22 6.4 °F /  -14.2 °C 1.0 °F /  -17.2 °C 1003.9 in /  33992.1 hPa West 14.0 mph /  22.5 km/h 17.7 mph /  28.5 km/h 67 % 0.0 in /  0 mm
11:29 6.5 °F /  -14.2 °C 1.0 °F /  -17.2 °C 1005.0 in /  34029.3 hPa West 16.3 mph /  26.2 km/h 27.4 mph /  44.1 km/h 66 % 0.0 in /  0 mm
11:36 6.5 °F /  -14.2 °C 1.0 °F /  -17.2 °C 1005.0 in /  34029.3 hPa WSW 10.8 mph /  17.4 km/h 27.4 mph /  44.1 km/h 66 % 0.0 in /  0 mm
11:41 6.7 °F /  -14.1 °C 1.0 °F /  -17.2 °C 1005.0 in /  34029.3 hPa West 16.9 mph /  27.2 km/h 30.6 mph /  49.2 km/h 65 % 0.0 in /  0 mm
11:47 6.8 °F /  -14 °C 1.0 °F /  -17.2 °C 1005.0 in /  34029.3 hPa WSW 15.4 mph /  24.8 km/h 30.6 mph /  49.2 km/h 65 % 0.0 in /  0 mm
11:54 6.8 °F /  -14 °C 1.0 °F /  -17.2 °C 1005.0 in /  34029.3 hPa NW 20.1 mph /  32.3 km/h 28.0 mph /  45.1 km/h 64 % 0.0 in /  0 mm
12:00 7.0 °F /  -13.9 °C 1.0 °F /  -17.2 °C 1006.0 in /  34063.2 hPa NNW 23.8 mph /  38.3 km/h 29.9 mph /  48.1 km/h 63 % 0.0 in /  0 mm
12:11 7.2 °F /  -13.8 °C 0.0 °F /  -17.8 °C 1006.0 in /  34063.2 hPa WNW 12.6 mph /  20.3 km/h 33.5 mph /  53.9 km/h 61 % 0.0 in /  0 mm
12:22 7.3 °F /  -13.7 °C 0.0 °F /  -17.8 °C 1006.0 in /  34063.2 hPa NW 30.2 mph /  48.6 km/h 37.5 mph /  60.3 km/h 59 % 0.0 in /  0 mm
12:35 7.4 °F /  -13.7 °C 0.0 °F /  -17.8 °C 1006.0 in /  34063.2 hPa West 18.3 mph /  29.5 km/h 30.6 mph /  49.2 km/h 60 % 0.0 in /  0 mm
12:46 7.5 °F /  -13.6 °C 1.0 °F /  -17.2 °C 1006.0 in /  34063.2 hPa West 13.0 mph /  20.9 km/h 31.7 mph /  51 km/h 61 % 0.0 in /  0 mm
12:53 7.6 °F /  -13.6 °C 1.0 °F /  -17.2 °C 1006.0 in /  34063.2 hPa West 12.2 mph /  19.6 km/h 31.7 mph /  51 km/h 61 % 0.0 in /  0 mm
12:58 7.7 °F /  -13.5 °C 1.0 °F /  -17.2 °C 1007.0 in /  34097 hPa NW 27.7 mph /  44.6 km/h 27.7 mph /  44.6 km/h 60 % 0.0 in /  0 mm
13:05 7.5 °F /  -13.6 °C 0.0 °F /  -17.8 °C 1007.0 in /  34097 hPa West 18.0 mph /  29 km/h 28.5 mph /  45.9 km/h 59 % 0.0 in /  0 mm
13:15 7.4 °F /  -13.7 °C 0.0 °F /  -17.8 °C 1007.0 in /  34097 hPa North 16.3 mph /  26.2 km/h 36.4 mph /  58.6 km/h 60 % 0.0 in /  0 mm
13:29 7.3 °F /  -13.7 °C 0.0 °F /  -17.8 °C 1007.0 in /  34097 hPa SW 21.2 mph /  34.1 km/h 38.5 mph /  62 km/h 59 % 0.0 in /  0 mm
13:38 7.4 °F /  -13.7 °C 0.0 °F /  -17.8 °C 1007.0 in /  34097 hPa South 21.2 mph /  34.1 km/h 37.5 mph /  60.3 km/h 60 % 0.0 in /  0 mm
13:52 7.5 °F /  -13.6 °C 0.0 °F /  -17.8 °C 1007.0 in /  34097 hPa West 21.2 mph /  34.1 km/h 37.8 mph /  60.8 km/h 59 % 0.0 in /  0 mm
14:05 7.8 °F /  -13.4 °C 0.0 °F /  -17.8 °C 1007.0 in /  34097 hPa NW 21.6 mph /  34.8 km/h 35.2 mph /  56.6 km/h 57 % 0.0 in /  0 mm
14:25 7.9 °F /  -13.4 °C 0.0 °F /  -17.8 °C 1006.0 in /  34063.2 hPa West 29.9 mph /  48.1 km/h 35.6 mph /  57.3 km/h 56 % 0.0 in /  0 mm
14:32 7.9 °F /  -13.4 °C 0.0 °F /  -17.8 °C 1007.0 in /  34097 hPa WSW 35.6 mph /  57.3 km/h 35.6 mph /  57.3 km/h 56 % 0.0 in /  0 mm
14:38 8.0 °F /  -13.3 °C 0.0 °F /  -17.8 °C 1007.0 in /  34097 hPa West 17.2 mph /  27.7 km/h 35.6 mph /  57.3 km/h 56 % 0.0 in /  0 mm
14:44 8.0 °F /  -13.3 °C 0.0 °F /  -17.8 °C 1007.0 in /  34097 hPa West 27.4 mph /  44.1 km/h 31.7 mph /  51 km/h 57 % 0.0 in /  0 mm
14:52 7.9 °F /  -13.4 °C -1.0 °F /  -18.3 °C 1007.0 in /  34097 hPa WSW 25.3 mph /  40.7 km/h 36.4 mph /  58.6 km/h 55 % 0.0 in /  0 mm
15:01 7.6 °F /  -13.6 °C -1.0 °F /  -18.3 °C 1007.0 in /  34097 hPa WSW 16.3 mph /  26.2 km/h 32.0 mph /  51.5 km/h 56 % 0.0 in /  0 mm
15:06 7.6 °F /  -13.6 °C 0.0 °F /  -17.8 °C 1007.0 in /  34097 hPa WSW 20.6 mph /  33.2 km/h 32.0 mph /  51.5 km/h 58 % 0.0 in /  0 mm
15:14 7.9 °F /  -13.4 °C 1.0 °F /  -17.2 °C 1007.0 in /  34097 hPa WNW 15.8 mph /  25.4 km/h 25.3 mph /  40.7 km/h 59 % 0.0 in /  0 mm
15:20 7.7 °F /  -13.5 °C 0.0 °F /  -17.8 °C 1007.0 in /  34097 hPa West 27.7 mph /  44.6 km/h 27.7 mph /  44.6 km/h 58 % 0.0 in /  0 mm
15:26 7.5 °F /  -13.6 °C 1.0 °F /  -17.2 °C 1007.0 in /  34097 hPa West 27.7 mph /  44.6 km/h 31.7 mph /  51 km/h 60 % 0.0 in /  0 mm
16:05 7.2 °F /  -13.8 °C 1.0 °F /  -17.2 °C 1008.0 in /  34130.9 hPa West 11.6 mph /  18.7 km/h 21.2 mph /  34.1 km/h 64 % 0.0 in /  0 mm
16:11 6.9 °F /  -13.9 °C 1.0 °F /  -17.2 °C 1008.0 in /  34130.9 hPa WSW 15.1 mph /  24.3 km/h 17.7 mph /  28.5 km/h 66 % 0.0 in /  0 mm
16:18 6.7 °F /  -14.1 °C 1.0 °F /  -17.2 °C 1008.0 in /  34130.9 hPa West 13.7 mph /  22 km/h 23.8 mph /  38.3 km/h 68 % 0.0 in /  0 mm
16:38 6.3 °F /  -14.3 °C 1.0 °F /  -17.2 °C 1008.0 in /  34130.9 hPa WSW 20.6 mph /  33.2 km/h 22.7 mph /  36.5 km/h 70 % 0.0 in /  0 mm
17:04 5.6 °F /  -14.7 °C 1.0 °F /  -17.2 °C 1009.0 in /  34164.7 hPa WSW 13.7 mph /  22 km/h 23.3 mph /  37.5 km/h 72 % 0.0 in /  0 mm
17:12 5.6 °F /  -14.7 °C 1.0 °F /  -17.2 °C 1009.0 in /  34164.7 hPa WSW 15.4 mph /  24.8 km/h 20.1 mph /  32.3 km/h 73 % 0.0 in /  0 mm
17:20 5.4 °F /  -14.8 °C 1.0 °F /  -17.2 °C 1009.0 in /  34164.7 hPa West 15.4 mph /  24.8 km/h 19.8 mph /  31.9 km/h 73 % 0.0 in /  0 mm
17:30 5.4 °F /  -14.8 °C 1.0 °F /  -17.2 °C 1009.0 in /  34164.7 hPa West 10.5 mph /  16.9 km/h 21.2 mph /  34.1 km/h 74 % 0.0 in /  0 mm
17:35 5.5 °F /  -14.7 °C 2.0 °F /  -16.7 °C 1009.0 in /  34164.7 hPa West 16.3 mph /  26.2 km/h 23.8 mph /  38.3 km/h 75 % 0.0 in /  0 mm
17:40 5.6 °F /  -14.7 °C 2.0 °F /  -16.7 °C 1009.0 in /  34164.7 hPa WSW 18.0 mph /  29 km/h 23.8 mph /  38.3 km/h 75 % 0.0 in /  0 mm
17:50 5.7 °F /  -14.6 °C 2.0 °F /  -16.7 °C 1009.0 in /  34164.7 hPa West 15.4 mph /  24.8 km/h 24.8 mph /  39.9 km/h 74 % 0.0 in /  0 mm
17:59 5.6 °F /  -14.7 °C 2.0 °F /  -16.7 °C 1009.0 in /  34164.7 hPa WSW 13.0 mph /  20.9 km/h 21.2 mph /  34.1 km/h 74 % 0.0 in /  0 mm
18:06 5.5 °F /  -14.7 °C 2.0 °F /  -16.7 °C 1009.0 in /  34164.7 hPa WSW 13.0 mph /  20.9 km/h 19.5 mph /  31.4 km/h 74 % 0.0 in /  0 mm
18:17 5.4 °F /  -14.8 °C 2.0 °F /  -16.7 °C 1008.0 in /  34130.9 hPa WSW 14.0 mph /  22.5 km/h 21.2 mph /  34.1 km/h 75 % 0.0 in /  0 mm
18:29 5.3 °F /  -14.8 °C 2.0 °F /  -16.7 °C 1008.0 in /  34130.9 hPa West 12.2 mph /  19.6 km/h 18.3 mph /  29.5 km/h 75 % 0.0 in /  0 mm
18:39 5.1 °F /  -14.9 °C 1.0 °F /  -17.2 °C 1008.0 in /  34130.9 hPa Calm   16.9 mph /  27.2 km/h 76 % 0.0 in /  0 mm
18:46 4.9 °F /  -15.1 °C 1.0 °F /  -17.2 °C 1008.0 in /  34130.9 hPa WSW 6.4 mph /  10.3 km/h 13.0 mph /  20.9 km/h 76 % 0.0 in /  0 mm
18:55 4.7 °F /  -15.2 °C 1.0 °F /  -17.2 °C 1008.0 in /  34130.9 hPa WSW 12.2 mph /  19.6 km/h 12.2 mph /  19.6 km/h 77 % 0.0 in /  0 mm
19:07 5.0 °F /  -15 °C 2.0 °F /  -16.7 °C 1008.0 in /  34130.9 hPa WSW 14.8 mph /  23.8 km/h 16.6 mph /  26.7 km/h 77 % 0.0 in /  0 mm
19:17 4.8 °F /  -15.1 °C 1.0 °F /  -17.2 °C 1008.0 in /  34130.9 hPa WSW 11.6 mph /  18.7 km/h 15.8 mph /  25.4 km/h 77 % 0.0 in /  0 mm
19:29 4.3 °F /  -15.4 °C 1.0 °F /  -17.2 °C 1008.0 in /  34130.9 hPa WSW 4.7 mph /  7.6 km/h 9.7 mph /  15.6 km/h 77 % 0.0 in /  0 mm
19:45 3.9 °F /  -15.6 °C 1.0 °F /  -17.2 °C 1009.0 in /  34164.7 hPa Calm   7.9 mph /  12.7 km/h 78 % 0.0 in /  0 mm
20:02 3.8 °F /  -15.7 °C 1.0 °F /  -17.2 °C 1009.0 in /  34164.7 hPa Calm   7.6 mph /  12.2 km/h 79 % 0.0 in /  0 mm
20:12 3.4 °F /  -15.9 °C 0.0 °F /  -17.8 °C 1009.0 in /  34164.7 hPa SW 6.4 mph /  10.3 km/h 8.7 mph /  14 km/h 79 % 0.0 in /  0 mm
20:22 3.3 °F /  -15.9 °C 1.0 °F /  -17.2 °C 1009.0 in /  34164.7 hPa WSW 6.4 mph /  10.3 km/h 8.7 mph /  14 km/h 80 % 0.0 in /  0 mm
20:27 3.2 °F /  -16 °C 1.0 °F /  -17.2 °C 1009.0 in /  34164.7 hPa WSW 6.9 mph /  11.1 km/h 7.9 mph /  12.7 km/h 81 % 0.0 in /  0 mm
20:36 3.0 °F /  -16.1 °C 0.0 °F /  -17.8 °C 1009.0 in /  34164.7 hPa Calm   6.9 mph /  11.1 km/h 81 % 0.0 in /  0 mm
20:41 2.9 °F /  -16.2 °C 1.0 °F /  -17.2 °C 1009.0 in /  34164.7 hPa Calm   4.0 mph /  6.4 km/h 82 % 0.0 in /  0 mm
20:46 2.8 °F /  -16.2 °C 1.0 °F /  -17.2 °C 1009.0 in /  34164.7 hPa Calm   4.0 mph /  6.4 km/h 82 % 0.0 in /  0 mm
20:51 2.6 °F /  -16.3 °C 0.0 °F /  -17.8 °C 1009.0 in /  34164.7 hPa Calm   5.8 mph /  9.3 km/h 82 % 0.0 in /  0 mm
20:56 2.5 °F /  -16.4 °C 0.0 °F /  -17.8 °C 1009.0 in /  34164.7 hPa Calm   5.8 mph /  9.3 km/h 82 % 0.0 in /  0 mm
21:01 2.4 °F /  -16.4 °C 0.0 °F /  -17.8 °C 1009.0 in /  34164.7 hPa Calm   6.4 mph /  10.3 km/h 83 % 0.0 in /  0 mm
21:06 2.5 °F /  -16.4 °C 0.0 °F /  -17.8 °C 1009.0 in /  34164.7 hPa Calm   7.6 mph /  12.2 km/h 83 % 0.0 in /  0 mm
21:12 2.8 °F /  -16.2 °C 1.0 °F /  -17.2 °C 1009.0 in /  34164.7 hPa WSW 8.7 mph /  14 km/h 9.3 mph /  15 km/h 84 % 0.0 in /  0 mm
21:17 3.0 °F /  -16.1 °C 1.0 °F /  -17.2 °C 1009.0 in /  34164.7 hPa Calm   10.1 mph /  16.3 km/h 85 % 0.0 in /  0 mm
21:22 3.2 °F /  -16 °C 1.0 °F /  -17.2 °C 1009.0 in /  34164.7 hPa West 9.0 mph /  14.5 km/h 10.1 mph /  16.3 km/h 86 % 0.0 in /  0 mm
21:27 3.4 °F /  -15.9 °C 1.0 °F /  -17.2 °C 1009.0 in /  34164.7 hPa WSW 6.1 mph /  9.8 km/h 9.3 mph /  15 km/h 86 % 0.0 in /  0 mm
21:32 3.6 °F /  -15.8 °C 2.0 °F /  -16.7 °C 1009.0 in /  34164.7 hPa WSW 9.0 mph /  14.5 km/h 9.0 mph /  14.5 km/h 86 % 0.0 in /  0 mm
21:38 3.7 °F /  -15.7 °C 2.0 °F /  -16.7 °C 1009.0 in /  34164.7 hPa WSW 9.0 mph /  14.5 km/h 12.2 mph /  19.6 km/h 86 % 0.0 in /  0 mm
21:41 3.9 °F /  -15.6 °C 2.0 °F /  -16.7 °C 1009.0 in /  34164.7 hPa WSW 11.1 mph /  17.9 km/h 12.2 mph /  19.6 km/h 87 % 0.0 in /  0 mm
21:44 3.9 °F /  -15.6 °C 2.0 °F /  -16.7 °C 1009.0 in /  34164.7 hPa SW 8.7 mph /  14 km/h 13.7 mph /  22 km/h 87 % 0.0 in /  0 mm
21:46 4.1 °F /  -15.5 °C 2.0 °F /  -16.7 °C 1009.0 in /  34164.7 hPa WSW 9.7 mph /  15.6 km/h 13.7 mph /  22 km/h 87 % 0.0 in /  0 mm
21:51 4.3 °F /  -15.4 °C 2.0 °F /  -16.7 °C 1009.0 in /  34164.7 hPa SW 8.7 mph /  14 km/h 13.7 mph /  22 km/h 86 % 0.0 in /  0 mm
21:56 4.3 °F /  -15.4 °C 2.0 °F /  -16.7 °C 1009.0 in /  34164.7 hPa WSW 7.9 mph /  12.7 km/h 12.2 mph /  19.6 km/h 86 % 0.0 in /  0 mm
22:02 4.4 °F /  -15.3 °C 2.0 °F /  -16.7 °C 1009.0 in /  34164.7 hPa SW 10.8 mph /  17.4 km/h 13.7 mph /  22 km/h 86 % 0.0 in /  0 mm
22:05 4.6 °F /  -15.2 °C 3.0 °F /  -16.1 °C 1009.0 in /  34164.7 hPa WSW 14.0 mph /  22.5 km/h 14.0 mph /  22.5 km/h 86 % 0.0 in /  0 mm
22:10 4.6 °F /  -15.2 °C 3.0 °F /  -16.1 °C 1009.0 in /  34164.7 hPa WSW 10.8 mph /  17.4 km/h 14.0 mph /  22.5 km/h 86 % 0.0 in /  0 mm
22:11 4.6 °F /  -15.2 °C 3.0 °F /  -16.1 °C 1008.0 in /  34130.9 hPa WSW 9.3 mph /  15 km/h 14.0 mph /  22.5 km/h 86 % 0.0 in /  0 mm
22:15 4.8 °F /  -15.1 °C 3.0 °F /  -16.1 °C 1008.0 in /  34130.9 hPa WSW 10.5 mph /  16.9 km/h 13.7 mph /  22 km/h 85 % 0.0 in /  0 mm
22:20 5.2 °F /  -14.9 °C 3.0 °F /  -16.1 °C 1008.0 in /  34130.9 hPa WSW 14.0 mph /  22.5 km/h 19.5 mph /  31.4 km/h 85 % 0.0 in /  0 mm
22:21 5.3 °F /  -14.8 °C 3.0 °F /  -16.1 °C 1008.0 in /  34130.9 hPa West 28.0 mph /  45.1 km/h 28.0 mph /  45.1 km/h 85 % 0.0 in /  0 mm
22:22 5.3 °F /  -14.8 °C 3.0 °F /  -16.1 °C 1008.0 in /  34130.9 hPa West 16.3 mph /  26.2 km/h 28.0 mph /  45.1 km/h 85 % 0.0 in /  0 mm
22:24 5.5 °F /  -14.7 °C 4.0 °F /  -15.6 °C 1008.0 in /  34130.9 hPa WSW 10.8 mph /  17.4 km/h 28.0 mph /  45.1 km/h 85 % 0.0 in /  0 mm
22:26 5.5 °F /  -14.7 °C 4.0 °F /  -15.6 °C 1008.0 in /  34130.9 hPa West 13.0 mph /  20.9 km/h 28.0 mph /  45.1 km/h 85 % 0.0 in /  0 mm
22:31 5.5 °F /  -14.7 °C 4.0 °F /  -15.6 °C 1008.0 in /  34130.9 hPa West 21.2 mph /  34.1 km/h 21.2 mph /  34.1 km/h 85 % 0.0 in /  0 mm
22:32 5.5 °F /  -14.7 °C 4.0 °F /  -15.6 °C 1008.0 in /  34130.9 hPa WSW 20.1 mph /  32.3 km/h 22.7 mph /  36.5 km/h 85 % 0.0 in /  0 mm
22:33 5.5 °F /  -14.7 °C 4.0 °F /  -15.6 °C 1008.0 in /  34130.9 hPa West 15.1 mph /  24.3 km/h 22.7 mph /  36.5 km/h 85 % 0.0 in /  0 mm
22:37 6.1 °F /  -14.4 °C 3.0 °F /  -16.1 °C 1008.0 in /  34130.9 hPa West 12.6 mph /  20.3 km/h 22.7 mph /  36.5 km/h 80 % 0.0 in /  0 mm
22:39 6.1 °F /  -14.4 °C 3.0 °F /  -16.1 °C 1008.0 in /  34130.9 hPa West 16.6 mph /  26.7 km/h 22.7 mph /  36.5 km/h 80 % 0.0 in /  0 mm
22:44 6.2 °F /  -14.3 °C 3.0 °F /  -16.1 °C 1008.0 in /  34130.9 hPa WSW 12.6 mph /  20.3 km/h 22.7 mph /  36.5 km/h 78 % 0.0 in /  0 mm
22:48 6.2 °F /  -14.3 °C 3.0 °F /  -16.1 °C 1008.0 in /  34130.9 hPa West 7.6 mph /  12.2 km/h 19.8 mph /  31.9 km/h 78 % 0.0 in /  0 mm
22:49 6.1 °F /  -14.4 °C 3.0 °F /  -16.1 °C 1008.0 in /  34130.9 hPa West 11.9 mph /  19.2 km/h 19.8 mph /  31.9 km/h 78 % 0.0 in /  0 mm
22:53 6.1 °F /  -14.4 °C 3.0 °F /  -16.1 °C 1008.0 in /  34130.9 hPa WSW 16.9 mph /  27.2 km/h 19.5 mph /  31.4 km/h 78 % 0.0 in /  0 mm
22:59 6.2 °F /  -14.3 °C 3.0 °F /  -16.1 °C 1007.0 in /  34097 hPa West 12.6 mph /  20.3 km/h 17.2 mph /  27.7 km/h 77 % 0.0 in /  0 mm
23:04 6.1 °F /  -14.4 °C 3.0 °F /  -16.1 °C 1007.0 in /  34097 hPa WSW 8.7 mph /  14 km/h 17.2 mph /  27.7 km/h 77 % 0.0 in /  0 mm
23:09 6.1 °F /  -14.4 °C 3.0 °F /  -16.1 °C 1007.0 in /  34097 hPa WSW 7.9 mph /  12.7 km/h 17.2 mph /  27.7 km/h 77 % 0.0 in /  0 mm
23:14 6.0 °F /  -14.4 °C 3.0 °F /  -16.1 °C 1007.0 in /  34097 hPa WSW 8.7 mph /  14 km/h 15.8 mph /  25.4 km/h 77 % 0.0 in /  0 mm
23:19 5.8 °F /  -14.6 °C 3.0 °F /  -16.1 °C 1007.0 in /  34097 hPa WSW 11.6 mph /  18.7 km/h 13.7 mph /  22 km/h 78 % 0.0 in /  0 mm
23:24 5.8 °F /  -14.6 °C 3.0 °F /  -16.1 °C 1007.0 in /  34097 hPa WSW 9.7 mph /  15.6 km/h 12.2 mph /  19.6 km/h 78 % 0.0 in /  0 mm
23:29 5.8 °F /  -14.6 °C 3.0 °F /  -16.1 °C 1007.0 in /  34097 hPa WSW 9.7 mph /  15.6 km/h 12.2 mph /  19.6 km/h 79 % 0.0 in /  0 mm
23:34 5.8 °F /  -14.6 °C 3.0 °F /  -16.1 °C 1007.0 in /  34097 hPa WSW 12.2 mph /  19.6 km/h 15.8 mph /  25.4 km/h 80 % 0.0 in /  0 mm
23:39 5.8 °F /  -14.6 °C 3.0 °F /  -16.1 °C 1007.0 in /  34097 hPa WSW 11.9 mph /  19.2 km/h 16.9 mph /  27.2 km/h 80 % 0.0 in /  0 mm
23:44 5.8 °F /  -14.6 °C 3.0 °F /  -16.1 °C 1007.0 in /  34097 hPa SW 10.5 mph /  16.9 km/h 16.9 mph /  27.2 km/h 80 % 0.0 in /  0 mm
23:49 6.1 °F /  -14.4 °C 3.0 °F /  -16.1 °C 1007.0 in /  34097 hPa WSW 20.9 mph /  33.6 km/h 26.2 mph /  42.2 km/h 80 % 0.0 in /  0 mm
23:54 6.2 °F /  -14.3 °C 3.0 °F /  -16.1 °C 1007.0 in /  34097 hPa WSW 23.0 mph /  37 km/h 26.2 mph /  42.2 km/h 80 % 0.0 in /  0 mm
23:59 6.2 °F /  -14.3 °C 3.0 °F /  -16.1 °C 1007.0 in /  34097 hPa WSW 16.3 mph /  26.2 km/h 23.0 mph /  37 km/h 81 % 0.0 in /  0 mm
Le Gheer Warneton
Courtoisie de Weather Underground - 1.5 mb

Mise a jour : 21/02/2018 11:55:11
Généré par Cumulus 1.9.4 (1099)